createdAt,value
2023-01-18T00:00:18.561Z,1.53
2023-01-18T00:02:47.256Z,1.37
2023-01-18T00:05:15.176Z,1.70
2023-01-18T00:07:42.951Z,1.70
2023-01-18T00:10:12.778Z,1.63
2023-01-18T00:12:40.619Z,1.70
2023-01-18T00:15:09.775Z,1.40
2023-01-18T00:17:47.553Z,1.57
2023-01-18T00:20:16.232Z,1.70
2023-01-18T00:22:44.429Z,1.50
2023-01-18T00:25:13.535Z,1.53
2023-01-18T00:27:46.011Z,1.50
2023-01-18T00:30:15.302Z,1.37
2023-01-18T00:32:42.971Z,1.20
2023-01-18T00:35:12.025Z,1.37
2023-01-18T00:37:40.433Z,1.50
2023-01-18T00:40:09.921Z,1.30
2023-01-18T00:42:57.026Z,1.37
2023-01-18T00:45:25.094Z,1.50
2023-01-18T00:47:53.359Z,1.50
2023-01-18T00:50:22.495Z,1.27
2023-01-18T00:52:51.090Z,1.30
2023-01-18T00:55:19.021Z,1.27
2023-01-18T00:57:48.097Z,0.87
2023-01-18T01:00:16.366Z,1.10
2023-01-18T01:02:44.294Z,1.23
2023-01-18T01:05:35.975Z,1.27
2023-01-18T01:08:04.720Z,1.27
2023-01-18T01:10:32.884Z,1.20
2023-01-18T01:13:20.198Z,1.30
2023-01-18T01:16:05.876Z,1.03
2023-01-18T01:18:51.284Z,1.03
2023-01-18T01:21:36.425Z,0.80
2023-01-18T01:24:22.014Z,1.47
2023-01-18T01:26:49.758Z,1.13
2023-01-18T01:29:18.928Z,1.17
2023-01-18T01:31:46.686Z,1.40
2023-01-18T01:34:14.971Z,1.47
2023-01-18T01:36:42.641Z,1.00
2023-01-18T01:39:11.110Z,1.07
2023-01-18T01:41:39.287Z,1.20
2023-01-18T01:44:40.481Z,1.33
2023-01-18T01:47:15.493Z,1.07
2023-01-18T01:49:47.121Z,1.27
2023-01-18T01:52:18.168Z,0.93
2023-01-18T01:54:50.062Z,1.57
2023-01-18T01:57:22.738Z,1.13
2023-01-18T01:59:56.235Z,0.97
2023-01-18T02:02:25.415Z,0.90
2023-01-18T02:04:55.827Z,1.00
2023-01-18T02:07:26.278Z,1.33
2023-01-18T02:09:55.383Z,1.20
2023-01-18T02:12:23.574Z,1.27
2023-01-18T02:14:51.428Z,1.03
2023-01-18T02:17:38.610Z,1.20
2023-01-18T02:20:40.003Z,1.20
2023-01-18T02:23:43.547Z,1.40
2023-01-18T02:26:46.924Z,1.03
2023-01-18T02:29:18.531Z,1.30
2023-01-18T02:32:00.085Z,1.40
2023-01-18T02:34:37.173Z,0.87
2023-01-18T02:37:08.447Z,1.10
2023-01-18T02:39:53.245Z,1.27
2023-01-18T02:42:37.524Z,0.90
2023-01-18T02:45:34.310Z,1.43
2023-01-18T02:48:04.144Z,1.33
2023-01-18T02:50:32.154Z,0.90
2023-01-18T02:53:00.116Z,1.20
2023-01-18T02:55:41.342Z,1.27
2023-01-18T02:58:12.636Z,1.17
2023-01-18T03:00:45.912Z,1.10
2023-01-18T03:03:16.037Z,1.43
2023-01-18T03:05:47.283Z,1.53
2023-01-18T03:08:20.499Z,1.20
2023-01-18T03:10:57.096Z,1.30
2023-01-18T03:13:31.806Z,1.13
2023-01-18T03:16:07.454Z,1.20
2023-01-18T03:19:00.296Z,0.93
2023-01-18T03:21:39.339Z,1.20
2023-01-18T03:24:08.499Z,1.13
2023-01-18T03:26:40.451Z,1.00
2023-01-18T03:29:26.311Z,1.30
2023-01-18T03:32:18.258Z,1.13
2023-01-18T03:34:53.618Z,1.23
2023-01-18T03:37:26.601Z,1.17
2023-01-18T03:39:57.906Z,1.00
2023-01-18T03:42:29.535Z,1.40
2023-01-18T03:45:04.185Z,1.30
2023-01-18T03:47:33.830Z,1.27
2023-01-18T03:50:02.042Z,1.10
2023-01-18T03:52:37.661Z,1.10
2023-01-18T03:55:11.944Z,1.70
2023-01-18T03:57:45.547Z,1.00
2023-01-18T04:00:15.472Z,1.20
2023-01-18T04:02:46.422Z,1.43
2023-01-18T04:05:14.407Z,1.03
2023-01-18T04:07:42.539Z,0.87
2023-01-18T04:10:11.938Z,1.10
2023-01-18T04:12:39.914Z,0.70
2023-01-18T04:15:08.614Z,0.97
2023-01-18T04:17:36.487Z,1.20
2023-01-18T04:20:06.529Z,1.10
2023-01-18T04:22:34.248Z,1.40
2023-01-18T04:25:02.117Z,1.00
2023-01-18T04:27:30.027Z,0.97
2023-01-18T04:29:58.553Z,0.90
2023-01-18T04:32:26.310Z,0.63
2023-01-18T04:34:54.570Z,1.27
2023-01-18T04:37:30.400Z,0.77
2023-01-18T04:39:58.561Z,0.90
2023-01-18T04:42:26.638Z,0.93
2023-01-18T04:44:54.549Z,1.10
2023-01-18T04:47:22.693Z,0.90
2023-01-18T04:49:50.668Z,1.23
2023-01-18T04:52:19.218Z,1.30
2023-01-18T04:54:48.583Z,1.17
2023-01-18T04:57:16.646Z,1.03
2023-01-18T04:59:46.054Z,0.93
2023-01-18T05:02:15.191Z,1.00
2023-01-18T05:04:43.650Z,0.73
2023-01-18T05:07:11.789Z,0.83
2023-01-18T05:09:39.496Z,1.20
2023-01-18T05:12:08.823Z,1.07
2023-01-18T05:14:36.616Z,1.10
2023-01-18T05:17:04.672Z,0.80
2023-01-18T05:19:32.356Z,1.00
2023-01-18T05:22:00.196Z,1.20
2023-01-18T05:24:29.900Z,1.20
2023-01-18T05:26:57.951Z,1.00
2023-01-18T05:29:27.182Z,1.10
2023-01-18T05:31:55.047Z,0.90
2023-01-18T05:34:22.897Z,0.90
2023-01-18T05:36:50.665Z,1.00
2023-01-18T05:39:18.477Z,0.90
2023-01-18T05:41:46.454Z,0.87
2023-01-18T05:44:14.287Z,0.97
2023-01-18T05:46:43.414Z,1.07
2023-01-18T05:49:11.250Z,0.70
2023-01-18T05:51:38.986Z,0.80
2023-01-18T05:54:06.812Z,1.07
2023-01-18T05:56:35.302Z,0.70
2023-01-18T05:59:03.156Z,1.10
2023-01-18T06:01:30.960Z,0.60
2023-01-18T06:04:00.155Z,1.00
2023-01-18T06:06:27.945Z,0.70
2023-01-18T06:08:56.008Z,0.80
2023-01-18T06:11:23.773Z,0.70
2023-01-18T06:13:52.358Z,0.50
2023-01-18T06:16:20.389Z,0.70
2023-01-18T06:18:48.132Z,0.90
2023-01-18T06:21:18.008Z,0.53
2023-01-18T06:23:46.065Z,0.60
2023-01-18T06:26:13.919Z,0.70
2023-01-18T06:28:41.796Z,0.77
2023-01-18T06:31:11.500Z,0.50
2023-01-18T06:33:39.415Z,0.57
2023-01-18T06:36:07.755Z,0.60
2023-01-18T06:38:37.825Z,0.50
2023-01-18T06:41:05.775Z,0.80
2023-01-18T06:43:33.795Z,0.80
2023-01-18T06:46:01.599Z,0.90
2023-01-18T06:48:29.858Z,0.87
2023-01-18T06:50:58.405Z,0.90
2023-01-18T06:53:26.631Z,0.77
2023-01-18T06:55:57.834Z,1.07
2023-01-18T06:58:26.944Z,1.07
2023-01-18T07:00:58.771Z,1.00
2023-01-18T07:03:27.671Z,0.90
2023-01-18T07:05:55.561Z,1.00
2023-01-18T07:08:24.230Z,1.10
2023-01-18T07:10:52.923Z,1.00
2023-01-18T07:13:22.366Z,0.93
2023-01-18T07:15:54.878Z,1.10
2023-01-18T07:18:23.002Z,0.80
2023-01-18T07:20:57.617Z,1.17
2023-01-18T07:23:25.710Z,1.10
2023-01-18T07:26:00.194Z,1.23
2023-01-18T07:28:29.896Z,1.30
2023-01-18T07:30:57.799Z,0.93
2023-01-18T07:33:25.971Z,1.63
2023-01-18T07:35:54.253Z,1.27
2023-01-18T07:38:22.577Z,1.37
2023-01-18T07:40:50.947Z,1.47
2023-01-18T07:43:19.334Z,1.37
2023-01-18T07:45:55.093Z,1.47
2023-01-18T07:48:23.562Z,1.43
2023-01-18T07:50:55.515Z,1.43
2023-01-18T07:53:24.120Z,1.53
2023-01-18T07:55:52.438Z,1.50
2023-01-18T07:58:21.174Z,2.10
2023-01-18T08:00:50.305Z,1.50
2023-01-18T08:03:19.651Z,1.87
2023-01-18T08:05:48.335Z,1.70
2023-01-18T08:08:18.410Z,1.80
2023-01-18T08:10:46.624Z,1.53
2023-01-18T08:13:14.356Z,1.70
2023-01-18T08:15:42.090Z,2.10
2023-01-18T08:18:12.047Z,1.90
2023-01-18T08:20:40.696Z,1.90
2023-01-18T08:23:08.450Z,1.90
2023-01-18T08:25:36.492Z,1.83
2023-01-18T08:28:05.610Z,1.53
2023-01-18T08:30:36.945Z,1.90
2023-01-18T08:33:05.332Z,2.00
2023-01-18T08:35:40.740Z,1.93
2023-01-18T08:38:08.598Z,1.70
2023-01-18T08:40:37.147Z,2.47
2023-01-18T08:43:06.235Z,2.10
2023-01-18T08:45:35.295Z,1.87
2023-01-18T08:48:05.036Z,2.13
2023-01-18T08:50:36.170Z,1.90
2023-01-18T08:53:05.058Z,1.87
2023-01-18T08:55:34.125Z,2.20
2023-01-18T08:58:01.945Z,1.80
2023-01-18T09:00:30.281Z,1.90
2023-01-18T09:02:59.272Z,1.90
2023-01-18T09:05:27.737Z,1.90
2023-01-18T09:07:57.912Z,1.67
2023-01-18T09:10:26.164Z,1.70
2023-01-18T09:12:55.520Z,1.60
2023-01-18T09:15:23.419Z,1.43
2023-01-18T09:17:51.216Z,1.30
2023-01-18T09:20:19.331Z,1.50
2023-01-18T09:22:48.722Z,1.47
2023-01-18T09:25:18.944Z,1.77
2023-01-18T09:27:47.603Z,1.50
2023-01-18T09:30:17.032Z,1.30
2023-01-18T09:32:44.846Z,1.47
2023-01-18T09:35:18.014Z,1.50
2023-01-18T09:37:46.396Z,1.70
2023-01-18T09:40:18.995Z,1.33
2023-01-18T09:42:49.067Z,1.73
2023-01-18T09:45:27.032Z,1.40
2023-01-18T09:48:02.325Z,1.47
2023-01-18T09:50:32.745Z,1.57
2023-01-18T09:53:11.229Z,1.30
2023-01-18T09:55:51.760Z,1.67
2023-01-18T09:58:35.816Z,1.73
2023-01-18T10:01:07.339Z,1.70
2023-01-18T10:03:43.650Z,1.83
2023-01-18T10:06:16.730Z,1.47
2023-01-18T10:08:54.756Z,1.33
2023-01-18T10:11:31.402Z,1.60
2023-01-18T10:14:06.249Z,1.80
2023-01-18T10:16:35.637Z,1.57
2023-01-18T10:19:03.545Z,1.60
2023-01-18T10:21:47.457Z,1.60
2023-01-18T10:24:28.852Z,1.87
2023-01-18T10:27:10.854Z,1.80
2023-01-18T10:29:52.831Z,1.80
2023-01-18T10:32:24.237Z,1.67
2023-01-18T10:34:53.227Z,1.83
2023-01-18T10:37:30.895Z,2.03
2023-01-18T10:40:03.209Z,1.73
2023-01-18T10:42:40.763Z,2.00
2023-01-18T10:45:20.106Z,1.70
2023-01-18T10:47:48.740Z,1.93
2023-01-18T10:50:18.789Z,1.97
2023-01-18T10:52:46.805Z,1.83
2023-01-18T10:55:17.284Z,2.40
2023-01-18T10:57:50.092Z,1.97
2023-01-18T11:00:23.664Z,2.10
2023-01-18T11:02:52.972Z,2.00
2023-01-18T11:05:25.277Z,2.17
2023-01-18T11:08:22.870Z,1.90
2023-01-18T11:11:00.746Z,1.50
2023-01-18T11:13:34.438Z,1.77
2023-01-18T11:16:09.969Z,1.70
2023-01-18T11:18:37.926Z,1.80
2023-01-18T11:21:11.357Z,1.83
2023-01-18T11:23:42.542Z,1.57
2023-01-18T11:26:15.756Z,1.60
2023-01-18T11:28:51.262Z,1.97
2023-01-18T11:31:22.414Z,1.67
2023-01-18T11:33:52.903Z,1.50
2023-01-18T11:36:22.987Z,1.77
2023-01-18T11:38:51.099Z,1.83
2023-01-18T11:41:23.382Z,1.90
2023-01-18T11:44:13.522Z,1.47
2023-01-18T11:46:44.819Z,1.50
2023-01-18T11:49:30.471Z,1.20
2023-01-18T11:52:02.911Z,1.60
2023-01-18T11:54:37.854Z,1.50
2023-01-18T11:57:10.386Z,1.77
2023-01-18T11:59:43.656Z,1.73
2023-01-18T12:02:46.482Z,1.40
2023-01-18T12:05:28.674Z,1.13
2023-01-18T12:08:11.644Z,1.63
2023-01-18T12:10:50.238Z,1.43
2023-01-18T12:13:35.854Z,1.10
2023-01-18T12:16:15.762Z,1.30
2023-01-18T12:19:43.751Z,1.63
2023-01-18T12:22:46.806Z,1.50
2023-01-18T12:25:32.578Z,1.70
2023-01-18T12:28:10.808Z,1.50
2023-01-18T12:30:48.072Z,1.60
2023-01-18T12:33:43.683Z,1.70
2023-01-18T12:36:30.831Z,1.73
2023-01-18T12:38:58.696Z,1.80
2023-01-18T12:41:43.245Z,1.37
2023-01-18T12:44:32.405Z,1.40
2023-01-18T12:47:09.280Z,1.40
2023-01-18T12:49:44.698Z,0.80
2023-01-18T12:52:19.378Z,0.83
2023-01-18T12:54:51.151Z,0.90
2023-01-18T12:57:21.378Z,1.00
2023-01-18T12:59:55.097Z,0.83
2023-01-18T13:02:31.972Z,1.10
2023-01-18T13:05:07.032Z,1.07
2023-01-18T13:07:40.297Z,1.20
2023-01-18T13:10:18.175Z,1.00
2023-01-18T13:12:46.381Z,1.10
2023-01-18T13:15:26.196Z,1.00
2023-01-18T13:17:58.978Z,1.00
2023-01-18T13:20:38.180Z,1.20
2023-01-18T13:23:20.127Z,0.87
2023-01-18T13:25:57.491Z,1.23
2023-01-18T13:28:27.119Z,1.17
2023-01-18T13:31:00.764Z,1.10
2023-01-18T13:33:32.433Z,0.93
2023-01-18T13:36:05.617Z,0.90
2023-01-18T13:38:41.569Z,1.03
2023-01-18T13:41:12.686Z,0.97
2023-01-18T13:44:01.430Z,1.30
2023-01-18T13:46:30.908Z,1.40
2023-01-18T13:49:01.604Z,1.40
2023-01-18T13:51:54.271Z,1.00
2023-01-18T13:55:02.288Z,0.87
2023-01-18T13:57:31.867Z,0.50
2023-01-18T14:00:01.299Z,0.70
2023-01-18T14:02:34.202Z,0.87
2023-01-18T14:05:07.473Z,1.00
2023-01-18T14:07:44.082Z,1.07
2023-01-18T14:10:31.664Z,0.70
2023-01-18T14:13:01.505Z,1.00
2023-01-18T14:15:38.838Z,1.10
2023-01-18T14:18:18.902Z,0.70
2023-01-18T14:21:20.229Z,1.00
2023-01-18T14:24:18.064Z,0.80
2023-01-18T14:26:47.115Z,1.00
2023-01-18T14:29:20.852Z,1.10
2023-01-18T14:31:53.778Z,1.03
2023-01-18T14:34:40.509Z,0.80
2023-01-18T14:37:29.112Z,0.60
2023-01-18T14:40:21.840Z,1.07
2023-01-18T14:42:53.805Z,1.13
2023-01-18T14:45:27.336Z,0.97
2023-01-18T14:47:57.169Z,0.70
2023-01-18T14:50:27.784Z,0.80
2023-01-18T14:52:55.995Z,0.67
2023-01-18T14:55:28.929Z,0.90
2023-01-18T14:58:12.628Z,0.63
2023-01-18T15:00:49.410Z,0.90
2023-01-18T15:03:24.143Z,0.70
2023-01-18T15:05:58.414Z,0.80
2023-01-18T15:08:28.083Z,0.90
2023-01-18T15:10:58.004Z,0.63
2023-01-18T15:13:27.639Z,0.60
2023-01-18T15:15:58.232Z,0.70
2023-01-18T15:18:29.342Z,0.60
2023-01-18T15:20:59.321Z,0.43
2023-01-18T15:23:28.403Z,0.50
2023-01-18T15:25:58.910Z,0.70
2023-01-18T15:28:33.854Z,0.60
2023-01-18T15:31:06.988Z,0.60
2023-01-18T15:33:37.628Z,0.50
2023-01-18T15:36:05.974Z,0.70
2023-01-18T15:38:34.095Z,0.80
2023-01-18T15:41:06.374Z,0.57
2023-01-18T15:43:36.696Z,0.70
2023-01-18T15:46:09.875Z,0.53
2023-01-18T15:48:47.290Z,0.50
2023-01-18T15:51:15.326Z,0.40
2023-01-18T15:53:49.152Z,0.40
2023-01-18T15:56:20.375Z,0.87
2023-01-18T15:58:51.186Z,0.63
2023-01-18T16:01:21.656Z,0.60
2023-01-18T16:03:58.658Z,0.50
2023-01-18T16:06:33.021Z,0.80
2023-01-18T16:09:10.298Z,0.80
2023-01-18T16:11:47.545Z,0.80
2023-01-18T16:14:25.271Z,0.50
2023-01-18T16:16:55.187Z,0.50
2023-01-18T16:19:30.881Z,0.60
2023-01-18T16:22:04.388Z,0.57
2023-01-18T16:24:35.562Z,0.60
2023-01-18T16:27:11.523Z,0.80
2023-01-18T16:29:48.298Z,0.57
2023-01-18T16:32:33.648Z,0.60
2023-01-18T16:35:02.902Z,0.80
2023-01-18T16:37:31.544Z,0.67
2023-01-18T16:39:59.315Z,0.70
2023-01-18T16:42:37.711Z,0.93
2023-01-18T16:45:07.304Z,0.80
2023-01-18T16:47:35.261Z,1.07
2023-01-18T16:50:04.942Z,0.70
2023-01-18T16:52:32.784Z,0.57
2023-01-18T16:55:00.527Z,0.87
2023-01-18T16:57:29.827Z,0.50
2023-01-18T16:59:57.607Z,0.50
2023-01-18T17:02:25.758Z,0.80
2023-01-18T17:04:54.821Z,0.90
2023-01-18T17:07:22.604Z,0.80
2023-01-18T17:09:52.536Z,0.80
2023-01-18T17:12:21.121Z,0.77
2023-01-18T17:14:50.331Z,0.87
2023-01-18T17:17:18.228Z,0.90
2023-01-18T17:19:46.474Z,0.77
2023-01-18T17:22:14.388Z,0.90
2023-01-18T17:24:42.200Z,0.60
2023-01-18T17:27:14.689Z,0.83
2023-01-18T17:29:42.539Z,0.70
2023-01-18T17:32:13.172Z,1.00
2023-01-18T17:34:40.967Z,0.90
2023-01-18T17:37:08.923Z,1.00
2023-01-18T17:39:44.228Z,1.07
2023-01-18T17:42:25.866Z,1.10
2023-01-18T17:45:02.603Z,0.90
2023-01-18T17:47:33.064Z,0.70
2023-01-18T17:50:01.008Z,1.00
2023-01-18T17:52:28.967Z,0.93
2023-01-18T17:54:56.747Z,0.70
2023-01-18T17:57:24.524Z,1.23
2023-01-18T17:59:55.627Z,1.23
2023-01-18T18:02:23.981Z,1.10
2023-01-18T18:04:53.344Z,1.13
2023-01-18T18:07:21.141Z,1.10
2023-01-18T18:09:49.399Z,1.03
2023-01-18T18:12:17.316Z,1.30
2023-01-18T18:14:45.146Z,0.90
2023-01-18T18:17:12.971Z,1.17
2023-01-18T18:19:40.749Z,1.37
2023-01-18T18:22:09.985Z,1.00
2023-01-18T18:24:37.789Z,0.70
2023-01-18T18:27:05.610Z,1.20
2023-01-18T18:29:33.432Z,1.50
2023-01-18T18:32:01.253Z,1.10
2023-01-18T18:34:30.173Z,1.57
2023-01-18T18:36:58.016Z,1.20
2023-01-18T18:39:27.243Z,1.20
2023-01-18T18:41:55.121Z,1.40
2023-01-18T18:44:22.851Z,1.10
2023-01-18T18:46:50.683Z,1.10
2023-01-18T18:49:18.658Z,1.10
2023-01-18T18:51:46.463Z,0.93
2023-01-18T18:54:14.545Z,1.43
2023-01-18T18:56:44.013Z,1.00
2023-01-18T18:59:11.860Z,1.20
2023-01-18T19:01:39.767Z,1.20
2023-01-18T19:04:08.005Z,1.30
2023-01-18T19:06:37.127Z,1.40
2023-01-18T19:09:06.198Z,1.17
2023-01-18T19:11:34.770Z,1.00
2023-01-18T19:14:05.242Z,1.27
2023-01-18T19:16:33.040Z,1.40
2023-01-18T19:19:00.833Z,1.03
2023-01-18T19:21:28.603Z,1.40
2023-01-18T19:23:56.409Z,1.00
2023-01-18T19:26:24.240Z,1.50
2023-01-18T19:28:52.039Z,1.10
2023-01-18T19:31:21.289Z,1.50
2023-01-18T19:33:49.495Z,1.53
2023-01-18T19:36:17.463Z,1.00
2023-01-18T19:38:49.318Z,1.00
2023-01-18T19:41:20.597Z,1.23
2023-01-18T19:43:50.356Z,0.93
2023-01-18T19:46:20.121Z,1.13
2023-01-18T19:48:49.514Z,0.90
2023-01-18T19:51:22.844Z,1.27
2023-01-18T19:53:50.925Z,1.60
2023-01-18T19:56:18.685Z,0.80
2023-01-18T19:58:46.446Z,1.10
2023-01-18T20:01:26.513Z,0.97
2023-01-18T20:03:55.875Z,1.00
2023-01-18T20:06:23.749Z,0.70
2023-01-18T20:08:53.987Z,1.10
2023-01-18T20:11:22.854Z,1.40
2023-01-18T20:13:51.551Z,1.40
2023-01-18T20:16:20.306Z,1.20
2023-01-18T20:18:48.846Z,1.10
2023-01-18T20:21:19.444Z,0.90
2023-01-18T20:23:47.380Z,1.23
2023-01-18T20:26:27.721Z,1.10
2023-01-18T20:29:06.226Z,1.10
2023-01-18T20:31:34.392Z,1.40
2023-01-18T20:34:02.272Z,1.20
2023-01-18T20:36:31.880Z,1.20
2023-01-18T20:38:59.608Z,0.73
2023-01-18T20:41:27.360Z,1.10
2023-01-18T20:43:55.184Z,1.27
2023-01-18T20:46:23.017Z,0.97
2023-01-18T20:48:50.794Z,0.97
2023-01-18T20:51:18.901Z,1.10
2023-01-18T20:53:48.392Z,0.90
2023-01-18T20:56:28.719Z,1.20
2023-01-18T20:58:57.862Z,1.30
2023-01-18T21:01:32.151Z,1.20
2023-01-18T21:04:01.129Z,0.97
2023-01-18T21:06:29.613Z,0.90
2023-01-18T21:08:59.966Z,1.20
2023-01-18T21:11:28.361Z,0.97
2023-01-18T21:13:59.049Z,1.00
2023-01-18T21:16:28.203Z,1.20
2023-01-18T21:18:58.752Z,1.33
2023-01-18T21:21:31.688Z,0.97
2023-01-18T21:24:00.935Z,1.10
2023-01-18T21:26:29.066Z,1.07
2023-01-18T21:28:56.982Z,1.60
2023-01-18T21:31:25.057Z,0.90
2023-01-18T21:33:52.868Z,0.80
2023-01-18T21:36:22.813Z,1.20
2023-01-18T21:38:51.014Z,0.90
2023-01-18T21:41:37.751Z,1.17
2023-01-18T21:44:23.341Z,1.10
2023-01-18T21:46:52.583Z,1.30
2023-01-18T21:52:43.142Z,1.00
2023-01-18T21:55:10.962Z,1.10
2023-01-18T21:57:40.107Z,0.83
2023-01-18T22:00:09.917Z,0.90
2023-01-18T22:02:38.544Z,1.30
2023-01-18T22:05:08.481Z,0.87
2023-01-18T22:07:36.360Z,1.10
2023-01-18T22:10:06.596Z,1.20
2023-01-18T22:12:38.949Z,0.77
2023-01-18T22:15:09.529Z,0.80
2023-01-18T22:17:37.341Z,1.00
2023-01-18T22:20:05.741Z,0.83
2023-01-18T22:22:33.464Z,0.97
2023-01-18T22:25:02.338Z,1.23
2023-01-18T22:27:30.431Z,1.10
2023-01-18T22:29:58.174Z,1.27
2023-01-18T22:32:27.355Z,1.27
2023-01-18T22:34:55.147Z,1.00
2023-01-18T22:37:23.466Z,0.90
2023-01-18T22:39:51.694Z,0.87
2023-01-18T22:42:19.478Z,1.10
2023-01-18T22:44:47.377Z,1.30
2023-01-18T22:47:15.162Z,0.90
2023-01-18T22:49:44.271Z,1.30
2023-01-18T22:52:12.056Z,1.37
2023-01-18T22:54:39.805Z,1.17
2023-01-18T22:57:07.614Z,1.33
2023-01-18T22:59:35.438Z,0.90
2023-01-18T23:02:03.251Z,1.03
2023-01-18T23:04:31.480Z,1.10
2023-01-18T23:07:00.942Z,0.87
2023-01-18T23:09:29.332Z,1.00
2023-01-18T23:11:57.268Z,1.10
2023-01-18T23:14:42.518Z,1.00
2023-01-18T23:17:29.821Z,1.20
2023-01-18T23:19:57.642Z,0.90
2023-01-18T23:22:26.950Z,0.70
2023-01-18T23:24:54.759Z,0.77
2023-01-18T23:27:22.611Z,0.90
2023-01-18T23:29:57.375Z,1.57
2023-01-18T23:32:27.933Z,0.93
2023-01-18T23:34:55.750Z,1.30
2023-01-18T23:37:23.645Z,0.90
2023-01-18T23:40:10.314Z,1.10
2023-01-18T23:42:55.550Z,1.20
2023-01-18T23:45:40.934Z,0.60
2023-01-18T23:48:27.214Z,0.80
2023-01-18T23:51:12.625Z,0.50
2023-01-18T23:53:57.884Z,0.63
2023-01-18T23:56:27.695Z,0.50
2023-01-18T23:58:56.411Z,0.50
